createdAt,value
2018-09-30T00:01:17.174Z,76.40
2018-09-30T00:03:46.110Z,76.90
2018-09-30T00:06:14.753Z,76.30
2018-09-30T00:08:43.781Z,76.00
2018-09-30T00:11:12.368Z,76.60
2018-09-30T00:13:41.029Z,76.10
2018-09-30T00:16:09.772Z,75.80
2018-09-30T00:18:38.552Z,76.90
2018-09-30T00:21:07.856Z,76.90
2018-09-30T00:23:42.065Z,76.70
2018-09-30T00:26:16.250Z,76.80
2018-09-30T00:28:45.314Z,77.30
2018-09-30T00:31:14.392Z,77.40
2018-09-30T00:33:48.397Z,77.10
2018-09-30T00:36:17.087Z,76.50
2018-09-30T00:38:46.137Z,77.40
2018-09-30T00:41:15.004Z,77.00
2018-09-30T00:43:43.986Z,78.10
2018-09-30T00:46:12.803Z,78.20
2018-09-30T00:48:42.427Z,77.90
2018-09-30T00:51:11.499Z,76.00
2018-09-30T00:53:40.522Z,75.60
2018-09-30T00:56:09.345Z,77.00
2018-09-30T00:58:38.142Z,77.10
2018-09-30T01:01:06.868Z,77.10
2018-09-30T01:03:36.664Z,76.90
2018-09-30T01:06:05.698Z,75.70
2018-09-30T01:08:35.760Z,75.40
2018-09-30T01:11:05.038Z,77.00
2018-09-30T01:13:33.790Z,76.20
2018-09-30T01:16:02.445Z,76.90
2018-09-30T01:18:31.030Z,76.90
2018-09-30T01:20:59.656Z,77.30
2018-09-30T01:23:28.345Z,76.90
2018-09-30T01:25:57.816Z,76.90
2018-09-30T01:28:27.148Z,77.50
2018-09-30T01:30:56.124Z,77.30
2018-09-30T01:33:35.425Z,77.60
2018-09-30T01:36:04.233Z,76.80
2018-09-30T01:38:33.187Z,77.30
2018-09-30T01:41:02.055Z,76.60
2018-09-30T01:43:30.787Z,76.80
2018-09-30T01:45:59.857Z,77.30
2018-09-30T01:48:29.494Z,76.90
2018-09-30T01:50:58.413Z,77.10
2018-09-30T01:53:27.139Z,76.60
2018-09-30T01:55:55.703Z,76.70
2018-09-30T01:58:24.295Z,77.10
2018-09-30T02:00:53.157Z,76.80
2018-09-30T02:03:21.723Z,76.80
2018-09-30T02:05:50.353Z,77.20
2018-09-30T02:08:19.083Z,76.80
2018-09-30T02:10:49.346Z,77.00
2018-09-30T02:13:18.875Z,76.80
2018-09-30T02:15:47.898Z,76.80
2018-09-30T02:18:16.754Z,76.90
2018-09-30T02:20:45.609Z,76.80
2018-09-30T02:23:14.157Z,76.40
2018-09-30T02:25:42.900Z,76.20
2018-09-30T02:28:11.613Z,77.00
2018-09-30T02:33:21.954Z,77.10
2018-09-30T02:35:50.755Z,76.70
2018-09-30T02:38:19.492Z,76.20
2018-09-30T02:40:48.387Z,76.80
2018-09-30T02:43:17.212Z,77.60
2018-09-30T02:45:46.028Z,77.80
2018-09-30T02:49:26.970Z,77.20
2018-09-30T02:52:07.714Z,77.60
2018-09-30T02:54:38.064Z,78.50
2018-09-30T02:57:07.024Z,78.20
2018-09-30T02:59:37.068Z,77.30
2018-09-30T03:02:06.034Z,77.50
2018-09-30T03:04:46.785Z,77.50
2018-09-30T03:07:25.284Z,77.30
2018-09-30T03:09:54.795Z,77.70
2018-09-30T03:12:23.721Z,77.60
2018-09-30T03:14:52.770Z,78.40
2018-09-30T03:17:21.525Z,77.20
2018-09-30T03:19:50.244Z,77.50
2018-09-30T03:22:19.013Z,77.70
2018-09-30T03:24:47.934Z,77.50
2018-09-30T03:27:16.715Z,77.50
2018-09-30T03:29:46.813Z,77.20
2018-09-30T03:32:16.197Z,77.50
2018-09-30T03:34:45.638Z,76.90
2018-09-30T03:37:14.318Z,77.50
2018-09-30T03:39:43.006Z,77.60
2018-09-30T03:42:11.605Z,78.40
2018-09-30T03:44:40.366Z,78.90
2018-09-30T03:47:08.962Z,77.80
2018-09-30T03:49:37.593Z,78.30
2018-09-30T03:52:06.786Z,79.10
2018-09-30T03:54:35.476Z,78.90
2018-09-30T03:57:04.048Z,79.00
2018-09-30T03:59:32.669Z,78.40
2018-09-30T04:02:01.505Z,76.90
2018-09-30T04:04:30.173Z,77.30
2018-09-30T04:06:58.884Z,79.30
2018-09-30T04:09:27.496Z,79.10
2018-09-30T04:11:56.012Z,80.00
2018-09-30T04:14:24.681Z,77.80
2018-09-30T04:16:53.428Z,79.40
2018-09-30T04:19:22.052Z,79.60
2018-09-30T04:21:50.732Z,79.50
2018-09-30T04:24:19.286Z,79.60
2018-09-30T04:26:47.855Z,77.20
2018-09-30T04:29:16.509Z,78.20
2018-09-30T04:31:46.212Z,79.30
2018-09-30T04:34:14.978Z,80.10
2018-09-30T04:37:08.703Z,80.80
2018-09-30T04:39:38.102Z,80.10
2018-09-30T04:42:07.921Z,79.60
2018-09-30T04:44:37.720Z,79.80
2018-09-30T04:47:06.529Z,79.80
2018-09-30T04:49:35.390Z,80.00
2018-09-30T04:52:04.256Z,77.40
2018-09-30T04:54:33.349Z,80.00
2018-09-30T04:57:07.033Z,79.80
2018-09-30T04:59:35.784Z,80.10
2018-09-30T05:02:04.546Z,78.90
2018-09-30T05:04:33.265Z,79.10
2018-09-30T05:07:02.263Z,78.90
2018-09-30T05:09:31.280Z,80.10
2018-09-30T05:12:00.200Z,79.60
2018-09-30T05:14:28.962Z,79.30
2018-09-30T05:16:57.815Z,78.80
2018-09-30T05:19:27.255Z,79.70
2018-09-30T05:21:55.918Z,79.80
2018-09-30T05:27:05.570Z,78.70
2018-09-30T05:29:34.358Z,80.20
2018-09-30T05:32:03.159Z,79.70
2018-09-30T05:34:32.017Z,78.20
2018-09-30T05:37:04.843Z,78.00
2018-09-30T05:39:33.673Z,80.00
2018-09-30T05:42:07.847Z,79.50
2018-09-30T05:44:36.602Z,80.30
2018-09-30T05:47:05.910Z,80.30
2018-09-30T05:49:40.550Z,80.50
2018-09-30T05:52:10.074Z,80.40
2018-09-30T05:54:48.582Z,79.40
2018-09-30T05:57:17.506Z,79.30
2018-09-30T05:59:46.245Z,78.50
2018-09-30T06:02:14.950Z,80.40
2018-09-30T06:04:57.340Z,79.90
2018-09-30T06:07:37.346Z,79.30
2018-09-30T06:10:06.309Z,79.70
2018-09-30T06:15:10.808Z,80.20
2018-09-30T06:17:39.580Z,79.70
2018-09-30T06:20:08.393Z,79.70
2018-09-30T06:22:37.524Z,79.80
2018-09-30T06:25:09.172Z,78.10
2018-09-30T06:27:38.008Z,78.90
2018-09-30T06:30:06.684Z,80.10
2018-09-30T06:32:35.297Z,80.50
2018-09-30T06:35:04.213Z,79.90
2018-09-30T06:37:33.069Z,77.20
2018-09-30T06:40:01.512Z,79.10
2018-09-30T06:42:30.613Z,81.20
2018-09-30T06:44:59.192Z,80.60
2018-09-30T06:47:27.698Z,80.30
2018-09-30T06:49:56.244Z,79.00
2018-09-30T06:52:24.652Z,78.10
2018-09-30T06:54:53.240Z,77.20
2018-09-30T06:57:21.729Z,76.30
2018-09-30T06:59:50.429Z,75.50
2018-09-30T07:02:19.171Z,75.60
2018-09-30T07:04:47.986Z,76.10
2018-09-30T07:07:16.358Z,75.30
2018-09-30T07:09:44.891Z,74.90
2018-09-30T07:12:13.383Z,74.40
2018-09-30T07:14:41.880Z,74.20
2018-09-30T07:17:10.366Z,74.30
2018-09-30T07:19:38.819Z,74.10
2018-09-30T07:22:07.302Z,74.10
2018-09-30T07:24:35.756Z,73.90
2018-09-30T07:27:13.857Z,73.80
2018-09-30T07:29:42.548Z,76.90
2018-09-30T07:32:11.182Z,78.20
2018-09-30T07:34:39.740Z,73.60
2018-09-30T07:37:08.261Z,73.70
2018-09-30T07:39:36.796Z,72.60
2018-09-30T07:42:05.386Z,73.10
2018-09-30T07:44:34.013Z,73.10
2018-09-30T07:47:02.545Z,73.20
2018-09-30T07:49:31.092Z,73.90
2018-09-30T07:51:59.719Z,73.00
2018-09-30T07:54:28.224Z,73.10
2018-09-30T07:56:56.801Z,73.80
2018-09-30T07:59:25.401Z,73.80
2018-09-30T08:01:53.968Z,74.50
2018-09-30T08:04:22.464Z,73.10
2018-09-30T08:06:50.989Z,73.70
2018-09-30T08:09:19.576Z,73.60
2018-09-30T08:11:48.117Z,74.30
2018-09-30T08:14:16.594Z,74.50
2018-09-30T08:16:45.147Z,73.00
2018-09-30T08:19:13.648Z,72.70
2018-09-30T08:21:42.217Z,72.70
2018-09-30T08:24:10.786Z,72.60
2018-09-30T08:26:39.220Z,72.70
2018-09-30T08:29:07.832Z,73.50
2018-09-30T08:31:36.282Z,73.10
2018-09-30T08:34:04.810Z,73.50
2018-09-30T08:36:33.296Z,73.80
2018-09-30T08:39:01.860Z,73.20
2018-09-30T08:41:30.493Z,72.30
2018-09-30T08:43:59.016Z,73.10
2018-09-30T08:46:27.567Z,72.10
2018-09-30T08:48:56.287Z,72.50
2018-09-30T08:51:25.456Z,72.20
2018-09-30T08:53:54.173Z,71.60
2018-09-30T08:56:26.468Z,71.60
2018-09-30T08:58:55.118Z,71.40
2018-09-30T09:01:24.589Z,70.30
2018-09-30T09:03:53.136Z,71.00
2018-09-30T09:06:24.996Z,71.20
2018-09-30T09:08:53.804Z,70.60
2018-09-30T09:11:22.290Z,69.40
2018-09-30T09:13:50.864Z,69.70
2018-09-30T09:16:19.396Z,69.10
2018-09-30T09:18:47.922Z,68.70
2018-09-30T09:21:16.542Z,67.50
2018-09-30T09:23:45.213Z,68.40
2018-09-30T09:26:13.808Z,67.70
2018-09-30T09:28:42.380Z,67.90
2018-09-30T09:31:10.830Z,67.80
2018-09-30T09:33:39.315Z,67.70
2018-09-30T09:36:08.105Z,66.70
2018-09-30T09:38:36.982Z,66.80
2018-09-30T09:41:05.544Z,67.80
2018-09-30T09:43:34.017Z,67.60
2018-09-30T09:46:02.533Z,67.70
2018-09-30T09:48:31.194Z,67.10
2018-09-30T09:51:01.009Z,66.90
2018-09-30T09:53:29.580Z,67.10
2018-09-30T09:55:58.242Z,66.30
2018-09-30T09:58:26.824Z,66.70
2018-09-30T10:00:55.397Z,66.80
2018-09-30T10:03:23.857Z,66.90
2018-09-30T10:05:52.394Z,66.50
2018-09-30T10:08:20.938Z,67.10
2018-09-30T10:10:49.487Z,67.80
2018-09-30T10:13:18.083Z,67.70
2018-09-30T10:15:46.669Z,67.80
2018-09-30T10:18:15.100Z,67.80
2018-09-30T10:20:43.777Z,67.60
2018-09-30T10:23:12.377Z,66.70
2018-09-30T10:25:40.938Z,65.90
2018-09-30T10:28:09.377Z,67.20
2018-09-30T10:30:37.865Z,65.50
2018-09-30T10:33:06.368Z,66.20
2018-09-30T10:35:35.105Z,65.60
2018-09-30T10:38:04.522Z,65.10
2018-09-30T10:40:33.172Z,64.90
2018-09-30T10:43:01.787Z,64.20
2018-09-30T10:45:30.404Z,64.20
2018-09-30T10:47:58.925Z,64.30
2018-09-30T10:50:27.524Z,64.20
2018-09-30T10:52:56.065Z,63.70
2018-09-30T10:55:24.694Z,64.10
2018-09-30T10:57:53.148Z,63.80
2018-09-30T11:00:21.704Z,62.10
2018-09-30T11:02:50.171Z,62.40
2018-09-30T11:05:18.713Z,61.60
2018-09-30T11:07:47.264Z,60.90
2018-09-30T11:10:15.875Z,61.80
2018-09-30T11:12:44.332Z,61.00
2018-09-30T11:15:13.160Z,60.40
2018-09-30T11:17:41.716Z,61.10
2018-09-30T11:20:10.224Z,61.00
2018-09-30T11:22:38.878Z,60.90
2018-09-30T11:25:07.417Z,60.70
2018-09-30T11:27:36.062Z,61.40
2018-09-30T11:30:04.630Z,59.00
2018-09-30T11:32:33.463Z,58.80
2018-09-30T11:35:02.076Z,58.40
2018-09-30T11:37:30.865Z,58.50
2018-09-30T11:39:59.381Z,57.90
2018-09-30T11:42:27.921Z,56.80
2018-09-30T11:44:56.475Z,56.10
2018-09-30T11:47:25.712Z,56.90
2018-09-30T11:49:54.323Z,57.30
2018-09-30T11:52:22.791Z,55.40
2018-09-30T11:54:51.432Z,56.80
2018-09-30T11:57:20.682Z,56.50
2018-09-30T11:59:49.225Z,56.80
2018-09-30T12:02:17.872Z,57.10
2018-09-30T12:04:46.447Z,58.30
2018-09-30T12:07:15.224Z,58.20
2018-09-30T12:09:43.939Z,57.40
2018-09-30T12:12:12.744Z,56.40
2018-09-30T12:14:41.354Z,55.60
2018-09-30T12:17:09.924Z,56.30
2018-09-30T12:19:38.752Z,55.90
2018-09-30T12:22:07.325Z,55.00
2018-09-30T12:24:36.028Z,55.00
2018-09-30T12:27:04.573Z,53.60
2018-09-30T12:29:33.030Z,54.10
2018-09-30T12:32:01.641Z,54.20
2018-09-30T12:34:30.092Z,54.80
2018-09-30T12:36:58.662Z,55.20
2018-09-30T12:39:27.239Z,56.10
2018-09-30T12:41:55.774Z,56.20
2018-09-30T12:44:25.311Z,55.10
2018-09-30T12:46:53.864Z,55.00
2018-09-30T12:49:22.405Z,54.40
2018-09-30T12:51:50.968Z,54.50
2018-09-30T12:54:19.513Z,54.10
2018-09-30T12:56:48.793Z,54.60
2018-09-30T12:59:17.992Z,54.60
2018-09-30T13:01:46.476Z,53.90
2018-09-30T13:04:15.100Z,54.00
2018-09-30T13:06:44.168Z,55.10
2018-09-30T13:09:13.863Z,55.50
2018-09-30T13:11:42.340Z,56.20
2018-09-30T13:14:10.798Z,56.30
2018-09-30T13:16:39.385Z,56.50
2018-09-30T13:19:07.966Z,55.80
2018-09-30T13:21:36.767Z,55.50
2018-09-30T13:24:05.439Z,56.00
2018-09-30T13:26:33.979Z,56.40
2018-09-30T13:29:03.341Z,57.70
2018-09-30T13:31:32.004Z,57.70
2018-09-30T13:34:00.665Z,57.90
2018-09-30T13:36:29.312Z,57.60
2018-09-30T13:38:58.435Z,57.20
2018-09-30T13:41:27.017Z,57.60
2018-09-30T13:43:56.692Z,57.00
2018-09-30T13:46:28.281Z,58.00
2018-09-30T13:48:56.968Z,58.60
2018-09-30T13:51:25.613Z,58.90
2018-09-30T13:53:54.273Z,58.90
2018-09-30T13:56:22.848Z,58.60
2018-09-30T13:58:51.390Z,59.10
2018-09-30T14:01:19.973Z,59.40
2018-09-30T14:03:48.453Z,59.40
2018-09-30T14:06:16.953Z,59.00
2018-09-30T14:08:45.498Z,59.30
2018-09-30T14:11:14.112Z,58.80
2018-09-30T14:13:46.005Z,59.10
2018-09-30T14:16:14.594Z,58.80
2018-09-30T14:18:43.230Z,59.20
2018-09-30T14:21:11.810Z,59.00
2018-09-30T14:23:40.500Z,58.50
2018-09-30T14:26:09.056Z,58.40
2018-09-30T14:28:38.279Z,58.40
2018-09-30T14:31:06.929Z,58.50
2018-09-30T14:33:35.661Z,57.70
2018-09-30T14:36:05.276Z,57.70
2018-09-30T14:38:33.962Z,58.20
2018-09-30T14:41:02.634Z,59.10
2018-09-30T14:43:31.136Z,58.90
2018-09-30T14:45:59.809Z,59.20
2018-09-30T14:48:28.398Z,58.80
2018-09-30T14:51:01.929Z,58.20
2018-09-30T14:53:30.380Z,59.10
2018-09-30T14:55:58.923Z,59.00
2018-09-30T14:58:27.439Z,59.00
2018-09-30T15:00:56.076Z,58.40
2018-09-30T15:03:24.593Z,58.80
2018-09-30T15:05:53.222Z,58.90
2018-09-30T15:08:21.817Z,59.20
2018-09-30T15:10:50.448Z,58.90
2018-09-30T15:13:19.175Z,59.10
2018-09-30T15:15:47.707Z,58.90
2018-09-30T15:18:16.205Z,58.50
2018-09-30T15:20:44.970Z,57.90
2018-09-30T15:23:13.623Z,58.10
2018-09-30T15:25:42.418Z,58.00
2018-09-30T15:28:11.150Z,58.30
2018-09-30T15:30:39.820Z,59.00
2018-09-30T15:33:08.554Z,58.60
2018-09-30T15:35:37.264Z,58.20
2018-09-30T15:38:05.984Z,58.60
2018-09-30T15:40:34.549Z,59.10
2018-09-30T15:43:03.443Z,58.10
2018-09-30T15:45:31.914Z,59.20
2018-09-30T15:48:01.046Z,58.90
2018-09-30T15:50:29.697Z,58.70
2018-09-30T15:52:58.224Z,58.40
2018-09-30T15:55:26.830Z,58.40
2018-09-30T15:57:56.136Z,59.50
2018-09-30T16:00:24.936Z,58.60
2018-09-30T16:02:53.509Z,59.80
2018-09-30T16:05:22.080Z,59.60
2018-09-30T16:07:51.091Z,59.20
2018-09-30T16:10:19.870Z,60.10
2018-09-30T16:12:48.415Z,59.50
2018-09-30T16:15:17.013Z,59.70
2018-09-30T16:17:45.552Z,59.20
2018-09-30T16:20:14.261Z,59.60
2018-09-30T16:22:43.063Z,60.10
2018-09-30T16:25:11.768Z,60.00
2018-09-30T16:27:40.258Z,60.60
2018-09-30T16:30:08.900Z,61.10
2018-09-30T16:32:37.500Z,61.70
2018-09-30T16:35:06.260Z,62.00
2018-09-30T16:37:34.856Z,62.00
2018-09-30T16:40:03.531Z,62.50
2018-09-30T16:42:32.081Z,63.30
2018-09-30T16:45:00.864Z,63.30
2018-09-30T16:47:29.485Z,63.80
2018-09-30T16:49:58.114Z,64.90
2018-09-30T16:52:27.106Z,65.50
2018-09-30T16:54:55.901Z,65.80
2018-09-30T16:57:24.671Z,66.20
2018-09-30T16:59:53.230Z,66.50
2018-09-30T17:02:21.860Z,67.10
2018-09-30T17:04:50.393Z,67.60
2018-09-30T17:07:18.939Z,68.30
2018-09-30T17:09:47.457Z,69.30
2018-09-30T17:12:16.078Z,69.00
2018-09-30T17:14:44.749Z,69.60
2018-09-30T17:17:13.427Z,69.90
2018-09-30T17:19:41.940Z,70.10
2018-09-30T17:22:10.515Z,70.60
2018-09-30T17:24:39.044Z,71.00
2018-09-30T17:27:07.655Z,71.20
2018-09-30T17:29:36.309Z,71.50
2018-09-30T17:32:05.008Z,71.90
2018-09-30T17:34:33.607Z,72.00
2018-09-30T17:37:02.332Z,72.30
2018-09-30T17:39:30.921Z,72.70
2018-09-30T17:42:08.409Z,73.10
2018-09-30T17:44:37.272Z,73.30
2018-09-30T17:47:06.094Z,73.50
2018-09-30T17:49:34.780Z,74.00
2018-09-30T17:52:03.508Z,74.30
2018-09-30T17:54:32.021Z,74.40
2018-09-30T17:57:00.671Z,74.70
2018-09-30T17:59:29.478Z,74.80
2018-09-30T18:01:58.174Z,74.90
2018-09-30T18:04:26.774Z,74.90
2018-09-30T18:06:55.277Z,75.00
2018-09-30T18:09:23.858Z,75.30
2018-09-30T18:11:52.693Z,75.40
2018-09-30T18:14:22.647Z,76.10
2018-09-30T18:16:51.117Z,76.40
2018-09-30T18:19:19.714Z,76.30
2018-09-30T18:21:48.310Z,76.60
2018-09-30T18:24:16.876Z,76.60
2018-09-30T18:26:45.397Z,76.60
2018-09-30T18:29:13.955Z,76.70
2018-09-30T18:31:42.566Z,77.00
2018-09-30T18:34:11.131Z,77.00
2018-09-30T18:36:39.718Z,77.10
2018-09-30T18:39:10.081Z,77.00
2018-09-30T18:41:38.633Z,77.00
2018-09-30T18:44:08.657Z,77.40
2018-09-30T18:46:37.553Z,78.80
2018-09-30T18:49:06.054Z,78.30
2018-09-30T18:51:34.617Z,77.80
2018-09-30T18:54:03.141Z,77.00
2018-09-30T18:56:31.601Z,76.30
2018-09-30T18:59:00.081Z,76.00
2018-09-30T19:01:28.676Z,75.60
2018-09-30T19:03:58.278Z,75.40
2018-09-30T19:06:26.752Z,75.20
2018-09-30T19:08:55.318Z,75.10
2018-09-30T19:11:24.077Z,75.10
2018-09-30T19:13:52.610Z,74.90
2018-09-30T19:16:21.156Z,74.80
2018-09-30T19:18:49.629Z,75.90
2018-09-30T19:21:21.657Z,74.90
2018-09-30T19:23:50.103Z,75.10
2018-09-30T19:26:36.469Z,75.50
2018-09-30T19:29:05.031Z,75.90
2018-09-30T19:31:33.541Z,76.10
2018-09-30T19:34:02.003Z,76.50
2018-09-30T19:36:30.553Z,76.20
2018-09-30T19:38:59.260Z,76.40
2018-09-30T19:41:27.775Z,76.60
2018-09-30T19:43:56.296Z,76.50
2018-09-30T19:46:24.940Z,76.50
2018-09-30T19:48:53.515Z,75.90
2018-09-30T19:51:22.154Z,75.70
2018-09-30T19:53:50.807Z,76.00
2018-09-30T19:56:19.310Z,76.50
2018-09-30T19:58:49.899Z,76.60
2018-09-30T20:01:37.945Z,77.10
2018-09-30T20:04:09.931Z,76.30
2018-09-30T20:06:38.494Z,75.90
2018-09-30T20:09:08.580Z,76.10
2018-09-30T20:11:37.430Z,76.90
2018-09-30T20:14:06.784Z,76.20
2018-09-30T20:16:35.237Z,77.00
2018-09-30T20:19:03.891Z,76.80
2018-09-30T20:21:32.418Z,76.00
2018-09-30T20:24:01.021Z,76.70
2018-09-30T20:26:29.476Z,75.90
2018-09-30T20:28:57.926Z,76.90
2018-09-30T20:31:26.594Z,76.20
2018-09-30T20:33:55.014Z,76.50
2018-09-30T20:36:23.497Z,76.60
2018-09-30T20:38:52.043Z,76.50
2018-09-30T20:41:20.571Z,76.60
2018-09-30T20:43:49.480Z,77.10
2018-09-30T20:46:18.052Z,76.80
2018-09-30T20:48:46.495Z,76.90
2018-09-30T20:51:14.934Z,76.60
2018-09-30T20:53:43.349Z,77.20
2018-09-30T20:56:11.869Z,76.40
2018-09-30T20:58:40.501Z,76.70
2018-09-30T21:01:09.029Z,77.60
2018-09-30T21:03:37.576Z,77.50
2018-09-30T21:06:16.049Z,77.80
2018-09-30T21:08:45.545Z,77.20
2018-09-30T21:11:13.986Z,77.50
2018-09-30T21:13:42.842Z,77.60
2018-09-30T21:16:11.538Z,77.80
2018-09-30T21:18:40.088Z,77.90
2018-09-30T21:21:08.553Z,78.00
2018-09-30T21:23:37.088Z,78.40
2018-09-30T21:26:05.755Z,78.50
2018-09-30T21:28:34.383Z,78.80
2018-09-30T21:31:02.928Z,77.90
2018-09-30T21:33:31.564Z,77.90
2018-09-30T21:36:00.270Z,77.90
2018-09-30T21:38:28.728Z,78.20
2018-09-30T21:40:57.185Z,79.10
2018-09-30T21:43:25.641Z,78.10
2018-09-30T21:45:54.170Z,78.00
2018-09-30T21:48:22.688Z,79.20
2018-09-30T21:50:51.190Z,79.10
2018-09-30T21:53:19.846Z,79.20
2018-09-30T21:55:48.348Z,78.90
2018-09-30T21:58:32.632Z,79.30
2018-09-30T22:01:02.650Z,78.70
2018-09-30T22:03:31.361Z,78.90
2018-09-30T22:05:59.918Z,79.20
2018-09-30T22:08:28.727Z,79.60
2018-09-30T22:10:57.142Z,79.30
2018-09-30T22:13:25.649Z,79.70
2018-09-30T22:15:54.128Z,79.90
2018-09-30T22:18:22.649Z,80.20
2018-09-30T22:20:51.173Z,80.20
2018-09-30T22:23:19.751Z,80.90
2018-09-30T22:25:48.228Z,80.70
2018-09-30T22:28:16.692Z,80.80
2018-09-30T22:30:45.147Z,80.60
2018-09-30T22:33:13.596Z,81.90
2018-09-30T22:35:42.517Z,81.20
2018-09-30T22:38:10.937Z,81.70
2018-09-30T22:40:39.382Z,81.60
2018-09-30T22:43:07.890Z,81.90
2018-09-30T22:45:36.322Z,81.60
2018-09-30T22:48:04.862Z,81.60
2018-09-30T22:50:33.359Z,81.90
2018-09-30T22:53:01.861Z,82.20
2018-09-30T22:55:30.384Z,82.40
2018-09-30T22:57:59.006Z,82.80
2018-09-30T23:00:27.450Z,82.80
2018-09-30T23:02:55.920Z,83.10
2018-09-30T23:05:24.498Z,83.40
2018-09-30T23:07:53.021Z,83.30
2018-09-30T23:10:21.484Z,83.60
2018-09-30T23:12:50.000Z,83.40
2018-09-30T23:15:18.384Z,83.60
2018-09-30T23:17:46.801Z,83.80
2018-09-30T23:20:15.973Z,84.10
2018-09-30T23:22:44.926Z,84.10
2018-09-30T23:25:13.384Z,83.70
2018-09-30T23:27:41.961Z,84.00
2018-09-30T23:30:10.437Z,84.00
2018-09-30T23:32:39.290Z,84.40
2018-09-30T23:35:07.749Z,84.50
2018-09-30T23:37:36.301Z,85.10
2018-09-30T23:40:05.430Z,84.60
2018-09-30T23:42:33.861Z,84.90
2018-09-30T23:45:02.319Z,84.80
2018-09-30T23:47:30.793Z,84.80
2018-09-30T23:49:59.248Z,84.80
2018-09-30T23:52:27.729Z,85.00
2018-09-30T23:54:56.148Z,85.40
2018-09-30T23:57:24.542Z,85.60
2018-09-30T23:59:53.050Z,85.80
